createdAt,value
2023-04-10T00:04:16.096Z,12.94
2023-04-10T00:09:15.041Z,12.88
2023-04-10T00:14:15.291Z,12.87
2023-04-10T00:19:14.088Z,12.82
2023-04-10T00:24:12.854Z,12.82
2023-04-10T00:29:11.646Z,12.76
2023-04-10T00:34:11.946Z,12.72
2023-04-10T00:39:11.156Z,12.47
2023-04-10T00:44:09.950Z,12.50
2023-04-10T00:49:09.750Z,12.43
2023-04-10T00:54:10.946Z,12.41
2023-04-10T00:59:09.753Z,12.24
2023-04-10T01:04:10.062Z,12.25
2023-04-10T01:09:18.899Z,12.21
2023-04-10T01:14:24.508Z,12.22
2023-04-10T01:19:37.356Z,12.27
2023-04-10T01:24:51.441Z,12.32
2023-04-10T01:29:57.565Z,12.29
2023-04-10T01:35:00.887Z,12.35
2023-04-10T01:40:03.080Z,12.30
2023-04-10T01:45:05.777Z,12.24
2023-04-10T01:50:05.600Z,12.32
2023-04-10T01:55:05.762Z,12.43
2023-04-10T02:00:14.819Z,12.37
2023-04-10T02:05:17.601Z,12.37
2023-04-10T02:10:21.911Z,12.31
2023-04-10T02:15:23.944Z,12.36
2023-04-10T02:20:25.027Z,12.39
2023-04-10T02:25:23.846Z,12.34
2023-04-10T02:30:24.932Z,12.30
2023-04-10T02:35:23.921Z,12.24
2023-04-10T02:40:22.877Z,12.16
2023-04-10T02:45:30.000Z,12.08
2023-04-10T02:50:29.808Z,12.08
2023-04-10T02:55:28.801Z,11.96
2023-04-10T03:00:29.252Z,11.87
2023-04-10T03:05:41.210Z,11.79
2023-04-10T03:10:40.205Z,11.81
2023-04-10T03:15:40.680Z,11.78
2023-04-10T03:20:39.673Z,11.76
2023-04-10T03:25:38.672Z,11.60
2023-04-10T03:30:40.969Z,11.55
2023-04-10T03:35:41.356Z,11.55
2023-04-10T03:40:40.277Z,11.56
2023-04-10T03:45:43.175Z,11.48
2023-04-10T03:50:42.688Z,11.42
2023-04-10T03:55:41.503Z,11.39
2023-04-10T04:00:42.745Z,11.38
2023-04-10T04:05:54.342Z,11.50
2023-04-10T04:11:01.309Z,11.36
2023-04-10T04:16:12.365Z,11.35
2023-04-10T04:21:22.748Z,11.18
2023-04-10T04:26:39.350Z,11.22
2023-04-10T04:32:05.737Z,11.06
2023-04-10T04:37:26.474Z,11.08
2023-04-10T04:43:03.807Z,11.14
2023-04-10T04:48:30.019Z,11.15
2023-04-10T04:53:52.031Z,11.28
2023-04-10T04:59:09.720Z,11.39
2023-04-10T05:04:28.183Z,11.57
2023-04-10T05:09:34.906Z,11.54
2023-04-10T05:14:42.831Z,11.44
2023-04-10T05:20:15.838Z,11.35
2023-04-10T05:25:40.914Z,11.25
2023-04-10T05:30:49.223Z,11.30
2023-04-10T05:36:09.168Z,11.37
2023-04-10T05:41:24.579Z,11.46
2023-04-10T05:46:41.764Z,11.29
2023-04-10T05:51:52.137Z,11.38
2023-04-10T05:57:13.841Z,11.38
2023-04-10T06:02:36.134Z,11.28
2023-04-10T06:07:36.712Z,11.09
2023-04-10T06:12:35.795Z,11.23
2023-04-10T06:17:36.960Z,11.22
2023-04-10T06:28:26.872Z,11.28
2023-04-10T06:33:29.350Z,11.18
2023-04-10T06:38:29.813Z,11.26
2023-04-10T06:43:30.101Z,11.39
2023-04-10T06:48:29.906Z,11.69
2023-04-10T06:53:30.431Z,11.79
2023-04-10T06:58:29.278Z,11.69
2023-04-10T07:03:28.204Z,11.67
2023-04-10T07:08:27.079Z,11.83
2023-04-10T07:13:29.453Z,12.16
2023-04-10T07:18:28.245Z,11.85
2023-04-10T07:23:27.587Z,11.95
2023-04-10T07:28:27.771Z,12.02
2023-04-10T07:33:27.351Z,12.35
2023-04-10T07:38:26.322Z,12.62
2023-04-10T07:43:25.114Z,12.73
2023-04-10T07:48:25.373Z,13.10
2023-04-10T07:53:24.108Z,13.18
2023-04-10T07:58:22.913Z,13.62
2023-04-10T08:03:21.861Z,14.00
2023-04-10T08:08:22.041Z,14.20
2023-04-10T08:13:20.777Z,14.37
2023-04-10T08:18:19.523Z,14.36
2023-04-10T08:23:21.173Z,14.68
2023-04-10T08:28:21.597Z,14.66
2023-04-10T08:33:20.344Z,14.92
2023-04-10T08:38:25.071Z,15.34
2023-04-10T08:43:25.417Z,15.59
2023-04-10T08:48:32.529Z,16.15
2023-04-10T08:53:33.484Z,16.67
2023-04-10T08:58:33.726Z,17.69
2023-04-10T09:03:32.789Z,19.01
2023-04-10T09:08:31.690Z,19.06
2023-04-10T09:13:39.540Z,18.72
2023-04-10T09:18:54.016Z,19.04
2023-04-10T09:24:01.953Z,18.98
2023-04-10T09:29:03.721Z,19.10
2023-04-10T09:34:10.567Z,19.46
2023-04-10T09:39:10.555Z,19.82
2023-04-10T09:44:12.538Z,20.05
2023-04-10T09:49:11.323Z,20.79
2023-04-10T09:54:11.687Z,20.99
2023-04-10T09:59:27.178Z,21.32
2023-04-10T10:04:27.153Z,22.33
2023-04-10T10:09:28.270Z,22.81
2023-04-10T10:14:30.140Z,23.22
2023-04-10T10:19:35.241Z,24.02
2023-04-10T10:24:37.829Z,23.42
2023-04-10T10:29:40.004Z,23.53
2023-04-10T10:34:38.909Z,23.64
2023-04-10T10:39:49.096Z,23.92
2023-04-10T10:44:53.973Z,22.46
2023-04-10T10:49:58.116Z,23.04
2023-04-10T10:54:59.483Z,23.89
2023-04-10T10:59:59.711Z,24.37
2023-04-10T11:04:58.300Z,24.30
2023-04-10T11:09:57.848Z,24.47
2023-04-10T11:15:03.208Z,24.74
2023-04-10T11:20:02.410Z,25.22
2023-04-10T11:25:03.214Z,24.20
2023-04-10T11:30:04.781Z,24.60
2023-04-10T11:35:05.098Z,24.30
2023-04-10T11:40:07.745Z,25.07
2023-04-10T11:45:27.177Z,24.61
2023-04-10T11:50:32.406Z,24.08
2023-04-10T11:55:40.681Z,23.29
2023-04-10T12:00:40.966Z,24.08
2023-04-10T12:05:47.460Z,24.00
2023-04-10T12:10:49.190Z,23.84
2023-04-10T12:15:49.469Z,23.83
2023-04-10T12:20:48.807Z,23.77
2023-04-10T12:25:47.569Z,23.13
2023-04-10T12:30:52.998Z,22.12
2023-04-10T12:35:52.786Z,21.79
2023-04-10T12:41:09.812Z,22.20
2023-04-10T12:46:11.584Z,22.11
2023-04-10T12:51:11.628Z,22.36
2023-04-10T12:56:12.425Z,22.62
2023-04-10T13:01:15.763Z,22.95
2023-04-10T13:06:15.212Z,22.58
2023-04-10T13:11:14.094Z,22.17
2023-04-10T13:16:14.339Z,22.21
2023-04-10T13:21:18.446Z,21.90
2023-04-10T13:26:17.345Z,21.82
2023-04-10T13:31:17.773Z,21.19
2023-04-10T13:36:17.043Z,21.58
2023-04-10T13:41:15.829Z,21.83
2023-04-10T13:46:14.601Z,21.26
2023-04-10T13:51:14.855Z,21.02
2023-04-10T13:56:13.632Z,20.88
2023-04-10T14:01:14.537Z,21.57
2023-04-10T14:06:15.548Z,21.22
2023-04-10T14:11:14.296Z,21.13
2023-04-10T14:16:13.280Z,21.09
2023-04-10T14:21:12.084Z,21.58
2023-04-10T14:26:12.319Z,21.76
2023-04-10T14:31:12.593Z,21.64
2023-04-10T14:36:11.492Z,21.84
2023-04-10T14:41:11.537Z,21.12
2023-04-10T14:46:10.606Z,20.82
2023-04-10T14:51:12.843Z,21.03
2023-04-10T14:56:14.577Z,21.20
2023-04-10T15:01:16.743Z,21.10
2023-04-10T15:06:15.688Z,20.93
2023-04-10T15:11:15.820Z,20.52
2023-04-10T15:16:14.650Z,20.30
2023-04-10T15:21:16.843Z,20.34
2023-04-10T15:26:17.201Z,19.98
2023-04-10T15:31:19.215Z,19.96
2023-04-10T15:36:21.158Z,19.85
2023-04-10T15:41:23.044Z,19.60
2023-04-10T15:46:22.223Z,19.55
2023-04-10T15:51:21.503Z,19.54
2023-04-10T15:56:23.740Z,19.35
2023-04-10T16:01:22.612Z,19.11
2023-04-10T16:06:21.510Z,18.88
2023-04-10T16:11:20.547Z,18.78
2023-04-10T16:16:21.051Z,18.66
2023-04-10T16:21:21.458Z,18.65
2023-04-10T16:26:21.406Z,18.56
2023-04-10T16:31:21.666Z,18.39
2023-04-10T16:36:20.574Z,18.18
2023-04-10T16:41:20.910Z,18.11
2023-04-10T16:46:21.313Z,17.88
2023-04-10T16:51:20.528Z,17.64
2023-04-10T16:56:19.302Z,17.53
2023-04-10T17:01:20.074Z,17.38
2023-04-10T17:06:21.219Z,17.28
2023-04-10T17:11:20.420Z,17.30
2023-04-10T17:16:19.247Z,17.26
2023-04-10T17:21:19.394Z,17.20
2023-04-10T17:26:18.417Z,17.24
2023-04-10T17:31:18.339Z,17.30
2023-04-10T17:36:17.157Z,17.14
2023-04-10T17:41:17.305Z,17.06
2023-04-10T17:46:17.361Z,17.08
2023-04-10T17:51:16.202Z,17.09
2023-04-10T17:56:22.601Z,17.04
2023-04-10T18:01:30.473Z,16.99
2023-04-10T18:06:30.233Z,16.98
2023-04-10T18:11:35.897Z,16.95
2023-04-10T18:16:34.541Z,17.04
2023-04-10T18:21:34.690Z,16.94
2023-04-10T18:26:35.033Z,16.92
2023-04-10T18:31:33.816Z,16.86
2023-04-10T18:36:33.013Z,16.69
2023-04-10T18:41:31.851Z,16.61
2023-04-10T18:46:32.876Z,16.54
2023-04-10T18:51:34.986Z,16.49
2023-04-10T18:56:35.891Z,16.44
2023-04-10T19:01:36.195Z,16.37
2023-04-10T19:06:41.967Z,16.36
2023-04-10T19:11:47.129Z,16.30
2023-04-10T19:16:51.818Z,16.33
2023-04-10T19:21:54.212Z,16.32
2023-04-10T19:26:55.803Z,16.26
2023-04-10T19:31:57.823Z,16.20
2023-04-10T19:36:59.941Z,16.22
2023-04-10T19:41:58.744Z,16.26
2023-04-10T19:46:59.043Z,16.31
2023-04-10T19:51:57.788Z,16.28
2023-04-10T19:56:56.911Z,16.27
2023-04-10T20:01:56.197Z,16.07
2023-04-10T20:06:56.366Z,15.82
2023-04-10T20:11:55.123Z,15.82
2023-04-10T20:16:55.894Z,15.68
2023-04-10T20:21:54.884Z,15.70
2023-04-10T20:26:55.347Z,15.64
2023-04-10T20:31:54.264Z,15.44
2023-04-10T20:36:52.941Z,15.42
2023-04-10T20:41:51.591Z,15.34
2023-04-10T20:46:51.800Z,15.36
2023-04-10T20:51:50.584Z,15.42
2023-04-10T20:56:49.565Z,15.46
2023-04-10T21:01:48.390Z,15.35
2023-04-10T21:06:48.490Z,15.39
2023-04-10T21:11:47.187Z,15.41
2023-04-10T21:16:45.987Z,15.48
2023-04-10T21:21:44.789Z,15.46
2023-04-10T21:26:44.859Z,15.46
2023-04-10T21:31:43.613Z,15.33
2023-04-10T21:36:42.568Z,15.20
2023-04-10T21:41:41.569Z,15.19
2023-04-10T21:46:41.972Z,14.98
2023-04-10T21:51:41.645Z,14.95
2023-04-10T21:56:41.459Z,14.78
2023-04-10T22:01:41.859Z,14.68
2023-04-10T22:06:40.728Z,14.62
2023-04-10T22:11:40.424Z,14.55
2023-04-10T22:16:39.303Z,14.52
2023-04-10T22:21:39.410Z,14.51
2023-04-10T22:26:38.042Z,14.37
2023-04-10T22:31:36.773Z,14.43
2023-04-10T22:36:35.592Z,14.40
2023-04-10T22:41:35.746Z,14.34
2023-04-10T22:46:35.002Z,13.98
2023-04-10T22:51:33.724Z,14.11
2023-04-10T22:56:32.381Z,14.13
2023-04-10T23:01:32.603Z,14.10
2023-04-10T23:06:31.890Z,14.18
2023-04-10T23:11:30.834Z,14.08
2023-04-10T23:16:29.741Z,14.06
2023-04-10T23:21:30.023Z,14.10
2023-04-10T23:26:31.199Z,14.00
2023-04-10T23:31:30.015Z,13.93
2023-04-10T23:36:30.217Z,13.89
2023-04-10T23:41:29.005Z,13.82
2023-04-10T23:46:27.970Z,13.81
2023-04-10T23:51:28.010Z,13.77
2023-04-10T23:56:29.448Z,13.77
